createdAt,value
2019-03-13T00:00:48.246Z,-441.16
2019-03-13T00:01:48.532Z,-435.22
2019-03-13T00:02:48.830Z,-437.08
2019-03-13T00:03:49.128Z,-438.36
2019-03-13T00:04:49.445Z,-443.88
2019-03-13T00:05:49.743Z,-440.88
2019-03-13T00:06:50.025Z,-440.15
2019-03-13T00:07:50.376Z,-438.66
2019-03-13T00:08:50.605Z,-439.14
2019-03-13T00:09:50.935Z,-441.57
2019-03-13T00:10:51.247Z,-437.82
2019-03-13T00:11:51.523Z,-436.64
2019-03-13T00:12:51.821Z,-437.02
2019-03-13T00:13:52.139Z,-434.89
2019-03-13T00:14:52.442Z,-434.93
2019-03-13T00:15:52.770Z,-435.79
2019-03-13T00:16:53.001Z,-437.23
2019-03-13T00:17:53.309Z,-434.17
2019-03-13T00:18:53.630Z,-437.23
2019-03-13T00:19:53.944Z,-440.29
2019-03-13T00:20:54.210Z,-436.71
2019-03-13T00:21:54.495Z,-442.36
2019-03-13T00:22:54.827Z,-440.01
2019-03-13T00:23:55.153Z,-439.51
2019-03-13T00:24:56.207Z,-437.08
2019-03-13T00:25:55.718Z,-435.81
2019-03-13T00:26:56.008Z,-439.96
2019-03-13T00:27:56.319Z,-436.64
2019-03-13T00:28:56.637Z,-438.17
2019-03-13T00:29:56.946Z,-438.16
2019-03-13T00:30:57.239Z,-437.79
2019-03-13T00:31:59.517Z,-443.41
2019-03-13T00:32:57.928Z,-438.13
2019-03-13T00:33:58.141Z,-439.04
2019-03-13T00:34:58.449Z,-437.47
2019-03-13T00:35:58.746Z,-438.38
2019-03-13T00:36:59.014Z,-436.82
2019-03-13T00:37:59.330Z,-437.78
2019-03-13T00:38:59.643Z,-438.43
2019-03-13T00:39:59.977Z,-437.15
2019-03-13T00:41:00.302Z,-442.20
2019-03-13T00:42:00.485Z,-439.47
2019-03-13T00:43:00.818Z,-440.43
2019-03-13T00:44:01.147Z,-439.28
2019-03-13T00:45:01.448Z,-440.89
2019-03-13T00:46:01.748Z,-439.51
2019-03-13T00:47:02.044Z,-437.39
2019-03-13T00:48:02.341Z,-439.08
2019-03-13T00:49:02.694Z,-435.26
2019-03-13T00:50:02.925Z,-441.90
2019-03-13T00:51:03.243Z,-443.01
2019-03-13T00:52:03.543Z,-437.69
2019-03-13T00:53:03.839Z,-438.20
2019-03-13T00:54:04.157Z,-442.75
2019-03-13T00:55:04.452Z,-438.98
2019-03-13T00:56:04.748Z,-437.35
2019-03-13T00:57:05.124Z,-435.31
2019-03-13T00:58:05.384Z,-439.94
2019-03-13T00:59:05.658Z,-435.91
2019-03-13T01:00:06.010Z,-434.88
2019-03-13T01:01:06.251Z,-440.12
2019-03-13T01:02:06.555Z,-438.93
2019-03-13T01:03:06.831Z,-439.62
2019-03-13T01:04:07.154Z,-435.16
2019-03-13T01:05:07.450Z,-436.71
2019-03-13T01:06:07.836Z,-437.93
2019-03-13T01:07:08.049Z,-436.99
2019-03-13T01:08:08.333Z,-437.18
2019-03-13T01:09:08.650Z,-439.59
2019-03-13T01:10:08.911Z,-437.58
2019-03-13T01:11:09.219Z,-439.43
2019-03-13T01:12:09.541Z,-439.97
2019-03-13T01:13:09.829Z,-437.80
2019-03-13T01:14:10.261Z,-435.26
2019-03-13T01:15:10.401Z,-439.59
2019-03-13T01:16:10.730Z,-434.03
2019-03-13T01:17:11.050Z,-436.76
2019-03-13T01:18:11.336Z,-435.05
2019-03-13T01:19:11.892Z,-437.23
2019-03-13T01:20:11.930Z,-440.52
2019-03-13T01:21:12.245Z,-442.59
2019-03-13T01:22:12.578Z,-433.84
2019-03-13T01:23:12.813Z,-437.46
2019-03-13T01:24:13.139Z,-438.56
2019-03-13T01:25:13.418Z,-437.98
2019-03-13T01:26:13.727Z,-437.19
2019-03-13T01:27:14.035Z,-435.03
2019-03-13T01:28:14.302Z,-434.64
2019-03-13T01:29:14.629Z,-436.32
2019-03-13T01:30:14.978Z,-437.51
2019-03-13T01:31:15.207Z,-440.61
2019-03-13T01:32:15.524Z,-438.94
2019-03-13T01:33:15.798Z,-436.37
2019-03-13T01:34:16.114Z,-439.96
2019-03-13T01:35:16.418Z,-435.44
2019-03-13T01:36:16.713Z,-434.93
2019-03-13T01:37:17.034Z,-439.25
2019-03-13T01:38:17.322Z,-434.97
2019-03-13T01:39:17.666Z,-431.97
2019-03-13T01:40:17.905Z,-433.59
2019-03-13T01:41:18.215Z,-436.92
2019-03-13T01:42:18.525Z,-435.89
2019-03-13T01:43:18.805Z,-429.27
2019-03-13T01:44:19.088Z,-427.20
2019-03-13T01:45:19.387Z,-427.31
2019-03-13T01:46:19.709Z,-427.73
2019-03-13T01:47:20.135Z,-426.12
2019-03-13T01:48:20.296Z,-428.95
2019-03-13T01:49:20.587Z,-427.68
2019-03-13T01:50:20.922Z,-422.96
2019-03-13T01:51:21.245Z,-423.16
2019-03-13T01:52:21.545Z,-422.77
2019-03-13T01:53:21.844Z,-425.47
2019-03-13T01:54:22.135Z,-431.05
2019-03-13T01:55:22.519Z,-430.48
2019-03-13T01:56:22.742Z,-428.70
2019-03-13T01:57:23.048Z,-432.44
2019-03-13T01:58:23.338Z,-428.78
2019-03-13T01:59:23.639Z,-427.42
2019-03-13T02:00:23.953Z,-431.19
2019-03-13T02:01:24.237Z,-427.15
2019-03-13T02:02:24.554Z,-427.81
2019-03-13T02:03:24.894Z,-427.10
2019-03-13T02:04:25.116Z,-428.33
2019-03-13T02:05:25.434Z,-422.85
2019-03-13T02:06:25.724Z,-424.92
2019-03-13T02:07:26.019Z,-423.11
2019-03-13T02:08:26.313Z,-423.29
2019-03-13T02:09:26.619Z,-425.91
2019-03-13T02:10:26.951Z,-424.92
2019-03-13T02:11:27.252Z,-422.96
2019-03-13T02:12:27.551Z,-423.49
2019-03-13T02:13:27.806Z,-425.00
2019-03-13T02:14:28.121Z,-425.86
2019-03-13T02:15:28.437Z,-424.96
2019-03-13T02:16:28.726Z,-424.29
2019-03-13T02:17:29.037Z,-423.38
2019-03-13T02:18:29.294Z,-426.59
2019-03-13T02:19:29.624Z,-424.90
2019-03-13T02:20:30.055Z,-424.76
2019-03-13T02:21:30.245Z,-426.14
2019-03-13T02:22:30.515Z,-424.92
2019-03-13T02:23:30.810Z,-424.72
2019-03-13T02:24:31.125Z,-425.39
2019-03-13T02:25:31.440Z,-427.65
2019-03-13T02:26:31.736Z,-426.47
2019-03-13T02:27:32.048Z,-423.69
2019-03-13T02:28:32.445Z,-425.74
2019-03-13T02:29:32.615Z,-424.49
2019-03-13T02:30:32.941Z,-422.37
2019-03-13T02:31:33.228Z,-425.44
2019-03-13T02:32:33.541Z,-426.26
2019-03-13T02:33:33.832Z,-425.50
2019-03-13T02:34:34.104Z,-425.11
2019-03-13T02:35:34.432Z,-424.26
2019-03-13T02:36:34.775Z,-423.42
2019-03-13T02:37:35.011Z,-426.22
2019-03-13T02:38:35.302Z,-425.48
2019-03-13T02:39:35.585Z,-426.16
2019-03-13T02:40:35.904Z,-425.07
2019-03-13T02:41:36.212Z,-423.24
2019-03-13T02:42:36.511Z,-422.57
2019-03-13T02:43:36.796Z,-423.76
2019-03-13T02:44:37.132Z,-423.29
2019-03-13T02:45:37.403Z,-423.20
2019-03-13T02:46:37.701Z,-422.72
2019-03-13T02:47:38.016Z,-421.92
2019-03-13T02:48:38.296Z,-422.66
2019-03-13T02:49:38.598Z,-422.27
2019-03-13T02:50:38.915Z,-426.90
2019-03-13T02:51:39.189Z,-425.30
2019-03-13T02:52:39.541Z,-451.75
2019-03-13T02:53:39.923Z,-451.41
2019-03-13T02:54:40.118Z,-450.15
2019-03-13T02:55:40.436Z,-453.16
2019-03-13T02:56:40.709Z,-451.15
2019-03-13T02:57:41.016Z,-452.17
2019-03-13T02:58:41.570Z,-448.40
2019-03-13T02:59:41.630Z,-451.57
2019-03-13T03:00:41.943Z,-453.87
2019-03-13T03:01:42.388Z,-452.52
2019-03-13T03:02:42.525Z,-454.47
2019-03-13T03:03:42.846Z,-454.37
2019-03-13T03:04:43.141Z,-452.26
2019-03-13T03:05:43.477Z,-454.51
2019-03-13T03:06:43.734Z,-426.51
2019-03-13T03:07:44.003Z,-453.53
2019-03-13T03:08:44.341Z,-453.79
2019-03-13T03:09:44.700Z,-451.62
2019-03-13T03:10:44.947Z,-456.71
2019-03-13T03:11:45.238Z,-455.66
2019-03-13T03:12:45.526Z,-455.09
2019-03-13T03:13:45.825Z,-429.81
2019-03-13T03:14:46.135Z,-455.01
2019-03-13T03:15:46.442Z,-457.84
2019-03-13T03:16:46.756Z,-453.26
2019-03-13T03:17:47.102Z,-454.78
2019-03-13T03:18:47.298Z,-455.19
2019-03-13T03:19:47.593Z,-457.74
2019-03-13T03:20:47.923Z,-456.32
2019-03-13T03:21:48.234Z,-457.08
2019-03-13T03:22:48.515Z,-456.76
2019-03-13T03:23:48.826Z,-452.69
2019-03-13T03:24:49.114Z,-458.21
2019-03-13T03:25:49.440Z,-455.55
2019-03-13T03:26:49.778Z,-452.80
2019-03-13T03:27:50.022Z,-453.70
2019-03-13T03:28:50.328Z,-453.63
2019-03-13T03:29:50.609Z,-453.16
2019-03-13T03:30:50.917Z,-453.28
2019-03-13T03:31:51.395Z,-451.58
2019-03-13T03:32:51.509Z,-454.41
2019-03-13T03:33:51.833Z,-452.93
2019-03-13T03:34:52.251Z,-451.31
2019-03-13T03:35:52.435Z,-451.84
2019-03-13T03:36:52.763Z,-450.06
2019-03-13T03:37:53.027Z,-453.98
2019-03-13T03:38:53.348Z,-456.43
2019-03-13T03:39:53.632Z,-458.23
2019-03-13T03:40:53.948Z,-465.21
2019-03-13T03:41:54.239Z,-465.04
2019-03-13T03:42:54.632Z,-460.99
2019-03-13T03:43:54.836Z,-464.50
2019-03-13T03:44:55.134Z,-463.22
2019-03-13T03:45:55.438Z,-465.05
2019-03-13T03:46:55.704Z,-464.33
2019-03-13T03:47:56.020Z,-464.51
2019-03-13T03:48:56.353Z,-462.87
2019-03-13T03:49:56.659Z,-461.79
2019-03-13T03:50:56.986Z,-460.96
2019-03-13T03:51:57.212Z,-460.41
2019-03-13T03:52:57.514Z,-462.24
2019-03-13T03:53:57.839Z,-462.91
2019-03-13T03:54:58.135Z,-462.96
2019-03-13T03:55:58.415Z,-461.76
2019-03-13T03:56:58.714Z,-459.76
2019-03-13T03:57:59.030Z,-461.24
2019-03-13T03:58:59.373Z,-459.61
2019-03-13T03:59:59.668Z,-459.66
2019-03-13T04:00:59.914Z,-458.83
2019-03-13T04:02:00.241Z,-457.39
2019-03-13T04:03:00.645Z,-459.60
2019-03-13T04:04:00.860Z,-459.86
2019-03-13T04:05:01.134Z,-460.02
2019-03-13T04:06:01.432Z,-460.02
2019-03-13T04:07:01.777Z,-456.71
2019-03-13T04:08:02.206Z,-458.57
2019-03-13T04:09:02.364Z,-458.34
2019-03-13T04:10:02.653Z,-461.50
2019-03-13T04:11:02.972Z,-437.42
2019-03-13T04:12:03.286Z,-434.26
2019-03-13T04:13:03.605Z,-432.08
2019-03-13T04:14:03.879Z,-434.06
2019-03-13T04:15:04.145Z,-434.64
2019-03-13T04:16:04.559Z,-435.75
2019-03-13T04:17:04.773Z,-434.33
2019-03-13T04:18:05.070Z,-434.21
2019-03-13T04:19:05.390Z,-433.99
2019-03-13T04:20:05.651Z,-435.56
2019-03-13T04:21:05.966Z,-437.91
2019-03-13T04:22:06.268Z,-435.87
2019-03-13T04:23:06.576Z,-435.47
2019-03-13T04:24:06.945Z,-435.60
2019-03-13T04:25:07.148Z,-439.29
2019-03-13T04:26:07.472Z,-435.80
2019-03-13T04:27:07.760Z,-439.40
2019-03-13T04:28:08.061Z,-434.58
2019-03-13T04:29:08.365Z,-440.43
2019-03-13T04:30:08.656Z,-436.38
2019-03-13T04:31:08.950Z,-435.55
2019-03-13T04:32:09.286Z,-435.47
2019-03-13T04:33:09.537Z,-442.13
2019-03-13T04:34:09.849Z,-440.96
2019-03-13T04:35:10.143Z,-435.60
2019-03-13T04:36:10.442Z,-437.30
2019-03-13T04:37:10.976Z,-437.61
2019-03-13T04:38:11.037Z,-438.03
2019-03-13T04:39:11.362Z,-438.34
2019-03-13T04:40:11.657Z,-437.63
2019-03-13T04:41:12.046Z,-439.34
2019-03-13T04:42:12.236Z,-437.93
2019-03-13T04:43:12.528Z,-437.67
2019-03-13T04:44:12.854Z,-438.07
2019-03-13T04:45:13.135Z,-439.22
2019-03-13T04:46:13.437Z,-436.19
2019-03-13T04:47:13.750Z,-437.98
2019-03-13T04:48:14.043Z,-435.34
2019-03-13T04:49:14.462Z,-437.07
2019-03-13T04:50:14.630Z,-437.30
2019-03-13T04:51:14.925Z,-439.00
2019-03-13T04:52:15.243Z,-434.38
2019-03-13T04:53:15.521Z,-436.25
2019-03-13T04:54:15.838Z,-437.80
2019-03-13T04:55:16.131Z,-435.30
2019-03-13T04:56:16.433Z,-437.84
2019-03-13T04:57:16.817Z,-440.77
2019-03-13T04:58:17.023Z,-437.13
2019-03-13T04:59:17.297Z,-434.91
2019-03-13T05:00:17.625Z,-435.64
2019-03-13T05:01:17.919Z,-435.94
2019-03-13T05:02:18.235Z,-436.52
2019-03-13T05:03:18.527Z,-435.52
2019-03-13T05:04:18.822Z,-437.26
2019-03-13T05:05:19.171Z,-436.07
2019-03-13T05:06:19.402Z,-433.24
2019-03-13T05:07:19.725Z,-441.25
2019-03-13T05:08:20.018Z,-435.28
2019-03-13T05:09:20.300Z,-439.44
2019-03-13T05:10:20.614Z,-438.90
2019-03-13T05:11:20.904Z,-434.01
2019-03-13T05:12:21.240Z,-436.44
2019-03-13T05:13:21.594Z,-437.84
2019-03-13T05:14:21.888Z,-438.11
2019-03-13T05:15:22.135Z,-435.27
2019-03-13T05:16:22.388Z,-435.84
2019-03-13T05:17:22.726Z,-437.42
2019-03-13T05:18:23.048Z,-435.60
2019-03-13T05:19:23.323Z,-426.12
2019-03-13T05:20:23.631Z,-425.73
2019-03-13T05:21:23.970Z,-434.29
2019-03-13T05:22:24.325Z,-439.63
2019-03-13T05:23:24.540Z,-434.11
2019-03-13T05:24:24.817Z,-435.77
2019-03-13T05:25:25.153Z,-434.23
2019-03-13T05:26:25.419Z,-435.43
2019-03-13T05:27:25.712Z,-432.89
2019-03-13T05:28:26.012Z,-434.37
2019-03-13T05:29:26.329Z,-433.58
2019-03-13T05:30:26.798Z,-431.71
2019-03-13T05:31:26.961Z,-426.35
2019-03-13T05:32:27.257Z,-430.39
2019-03-13T05:33:27.567Z,-433.14
2019-03-13T05:34:27.874Z,-427.00
2019-03-13T05:35:28.175Z,-422.48
2019-03-13T05:36:28.456Z,-419.96
2019-03-13T05:37:28.776Z,-422.03
2019-03-13T05:38:29.117Z,-431.14
2019-03-13T05:39:29.356Z,-423.86
2019-03-13T05:40:29.692Z,-420.99
2019-03-13T05:41:29.948Z,-426.93
2019-03-13T05:42:30.278Z,-422.19
2019-03-13T05:43:30.540Z,-429.59
2019-03-13T05:44:30.824Z,-428.61
2019-03-13T05:45:31.189Z,-428.71
2019-03-13T05:46:31.488Z,-425.95
2019-03-13T05:47:31.765Z,-425.50
2019-03-13T05:48:32.039Z,-425.25
2019-03-13T05:49:32.338Z,-419.93
2019-03-13T05:50:32.652Z,-412.57
2019-03-13T05:51:32.941Z,-420.48
2019-03-13T05:52:33.262Z,-425.03
2019-03-13T05:53:33.533Z,-422.24
2019-03-13T05:54:33.885Z,-425.58
2019-03-13T05:55:34.263Z,-422.38
2019-03-13T05:56:34.480Z,-420.66
2019-03-13T05:57:34.793Z,-426.43
2019-03-13T05:58:35.073Z,-425.16
2019-03-13T05:59:35.382Z,-456.75
2019-03-13T06:00:35.693Z,-430.92
2019-03-13T06:01:35.955Z,-454.06
2019-03-13T06:02:36.291Z,-453.55
2019-03-13T06:03:36.730Z,-453.29
2019-03-13T06:04:36.878Z,-453.34
2019-03-13T06:05:37.185Z,-454.40
2019-03-13T06:06:37.455Z,-451.14
2019-03-13T06:07:37.778Z,-453.46
2019-03-13T06:08:38.078Z,-451.35
2019-03-13T06:09:38.378Z,-451.89
2019-03-13T06:10:38.695Z,-455.12
2019-03-13T06:11:39.062Z,-450.59
2019-03-13T06:12:39.265Z,-442.70
2019-03-13T06:13:39.828Z,-447.74
2019-03-13T06:14:40.126Z,-446.02
2019-03-13T06:15:40.445Z,-448.56
2019-03-13T06:16:40.723Z,-443.57
2019-03-13T06:17:41.008Z,-450.46
2019-03-13T06:18:41.326Z,-449.49
2019-03-13T06:19:41.704Z,-442.39
2019-03-13T06:20:41.947Z,-445.85
2019-03-13T06:21:42.228Z,-454.00
2019-03-13T06:22:42.522Z,-449.99
2019-03-13T06:23:42.837Z,-450.65
2019-03-13T06:24:43.116Z,-443.34
2019-03-13T06:25:43.444Z,-441.74
2019-03-13T06:26:43.786Z,-446.04
2019-03-13T06:27:45.903Z,-450.08
2019-03-13T06:28:44.376Z,-447.34
2019-03-13T06:29:44.635Z,-449.95
2019-03-13T06:30:44.947Z,-452.50
2019-03-13T06:31:45.239Z,-449.16
2019-03-13T06:32:45.540Z,-452.85
2019-03-13T06:33:45.853Z,-450.54
2019-03-13T06:34:46.144Z,-450.75
2019-03-13T06:35:46.458Z,-446.40
2019-03-13T06:36:46.799Z,-452.00
2019-03-13T06:37:47.029Z,-454.75
2019-03-13T06:38:47.344Z,-449.19
2019-03-13T06:39:47.620Z,-450.34
2019-03-13T06:40:47.934Z,-447.82
2019-03-13T06:41:48.230Z,-450.71
2019-03-13T06:42:48.525Z,-451.96
2019-03-13T06:43:48.850Z,-451.85
2019-03-13T06:44:49.243Z,-452.15
2019-03-13T06:45:49.436Z,-448.51
2019-03-13T06:46:49.718Z,-453.68
2019-03-13T06:47:50.016Z,-452.26
2019-03-13T06:48:50.333Z,-453.25
2019-03-13T06:49:50.616Z,-426.14
2019-03-13T06:50:50.916Z,-426.96
2019-03-13T06:51:51.196Z,-424.42
2019-03-13T06:52:51.558Z,-426.18
2019-03-13T06:53:51.808Z,-426.53
2019-03-13T06:54:52.114Z,-423.68
2019-03-13T06:55:52.413Z,-423.08
2019-03-13T06:56:52.694Z,-424.37
2019-03-13T06:57:52.978Z,-425.58
2019-03-13T06:58:53.304Z,-431.73
2019-03-13T06:59:53.593Z,-429.37
2019-03-13T07:00:53.956Z,-431.87
2019-03-13T07:01:54.172Z,-426.09
2019-03-13T07:02:54.470Z,-430.13
2019-03-13T07:03:54.794Z,-429.97
2019-03-13T07:04:55.101Z,-428.19
2019-03-13T07:05:55.396Z,-427.24
2019-03-13T07:06:55.696Z,-427.75
2019-03-13T07:07:55.968Z,-429.12
2019-03-13T07:08:56.291Z,-429.60
2019-03-13T07:09:56.669Z,-432.35
2019-03-13T07:10:56.887Z,-431.82
2019-03-13T07:11:57.175Z,-423.30
2019-03-13T07:12:57.468Z,-425.98
2019-03-13T07:13:57.776Z,-425.90
2019-03-13T07:14:58.073Z,-430.84
2019-03-13T07:15:58.380Z,-420.52
2019-03-13T07:16:59.153Z,-429.36
2019-03-13T07:17:59.062Z,-432.26
2019-03-13T07:18:59.262Z,-429.99
2019-03-13T07:19:59.567Z,-431.89
2019-03-13T07:20:59.865Z,-423.61
2019-03-13T07:22:00.161Z,-428.47
2019-03-13T07:23:00.458Z,-431.18
2019-03-13T07:24:00.774Z,-433.07
2019-03-13T07:25:01.066Z,-431.31
2019-03-13T07:26:01.428Z,-430.56
2019-03-13T07:27:01.661Z,-430.77
2019-03-13T07:28:01.958Z,-422.68
2019-03-13T07:29:11.549Z,-429.55
2019-03-13T07:30:03.576Z,-434.33
2019-03-13T07:31:02.842Z,-429.91
2019-03-13T07:32:03.167Z,-431.81
2019-03-13T07:33:03.469Z,-430.88
2019-03-13T07:34:03.821Z,-427.67
2019-03-13T07:35:04.068Z,-431.45
2019-03-13T07:36:04.332Z,-427.34
2019-03-13T07:37:04.673Z,-431.12
2019-03-13T07:38:04.978Z,-431.10
2019-03-13T07:39:05.279Z,-429.89
2019-03-13T07:40:05.565Z,-430.46
2019-03-13T07:41:05.855Z,-432.43
2019-03-13T07:42:06.194Z,-433.43
2019-03-13T07:43:06.506Z,-434.97
2019-03-13T07:44:06.773Z,-433.63
2019-03-13T07:45:07.054Z,-430.56
2019-03-13T07:46:07.352Z,-427.27
2019-03-13T07:47:07.654Z,-432.01
2019-03-13T07:48:07.951Z,-433.75
2019-03-13T07:49:08.270Z,-432.74
2019-03-13T07:50:08.561Z,-431.95
2019-03-13T07:51:08.960Z,-429.64
2019-03-13T07:52:09.388Z,-432.51
2019-03-13T07:53:09.476Z,-429.98
2019-03-13T07:54:09.786Z,-431.19
2019-03-13T07:55:10.069Z,-428.55
2019-03-13T07:56:10.365Z,-428.18
2019-03-13T07:57:10.684Z,-432.09
2019-03-13T07:58:10.969Z,-435.39
2019-03-13T07:59:11.364Z,-429.24
2019-03-13T08:00:11.554Z,-433.74
2019-03-13T08:01:11.855Z,-433.36
2019-03-13T08:02:12.164Z,-432.11
2019-03-13T08:03:12.479Z,-429.98
2019-03-13T08:04:12.751Z,-433.01
2019-03-13T08:05:13.058Z,-432.69
2019-03-13T08:06:13.350Z,-431.53
2019-03-13T08:07:13.715Z,-432.21
2019-03-13T08:08:13.933Z,-433.81
2019-03-13T08:09:14.255Z,-431.77
2019-03-13T08:10:14.516Z,-419.05
2019-03-13T08:11:14.839Z,-430.01
2019-03-13T08:12:15.146Z,-428.12
2019-03-13T08:13:15.420Z,-436.51
2019-03-13T08:14:15.739Z,-426.47
2019-03-13T08:15:16.034Z,-426.58
2019-03-13T08:16:16.329Z,-434.58
2019-03-13T08:17:16.654Z,-435.68
2019-03-13T08:18:16.928Z,-434.69
2019-03-13T08:19:17.301Z,-436.60
2019-03-13T08:20:17.538Z,-432.91
2019-03-13T08:21:17.839Z,-435.89
2019-03-13T08:22:18.147Z,-432.55
2019-03-13T08:23:18.472Z,-430.41
2019-03-13T08:24:18.885Z,-433.68
2019-03-13T08:25:19.040Z,-434.86
2019-03-13T08:26:19.357Z,-433.73
2019-03-13T08:27:19.660Z,-431.89
2019-03-13T08:28:19.935Z,-434.72
2019-03-13T08:29:20.239Z,-435.84
2019-03-13T08:30:20.706Z,-432.51
2019-03-13T08:31:20.850Z,-432.58
2019-03-13T08:32:21.242Z,-440.59
2019-03-13T08:33:21.440Z,-435.49
2019-03-13T08:34:21.718Z,-439.41
2019-03-13T08:35:22.039Z,-425.93
2019-03-13T08:36:22.341Z,-434.93
2019-03-13T08:37:22.658Z,-439.15
2019-03-13T08:38:22.959Z,-436.90
2019-03-13T08:39:23.225Z,-437.38
2019-03-13T08:40:23.613Z,-436.71
2019-03-13T08:41:23.817Z,-439.45
2019-03-13T08:42:24.124Z,-439.79
2019-03-13T08:43:24.444Z,-434.07
2019-03-13T08:44:24.732Z,-435.56
2019-03-13T08:45:25.051Z,-434.15
2019-03-13T08:46:25.333Z,-439.88
2019-03-13T08:47:25.659Z,-440.09
2019-03-13T08:48:25.971Z,-434.95
2019-03-13T08:49:26.205Z,-432.65
2019-03-13T08:50:26.528Z,-435.39
2019-03-13T08:51:26.817Z,-430.54
2019-03-13T08:52:27.138Z,-426.23
2019-03-13T08:53:27.440Z,-434.82
2019-03-13T08:54:27.706Z,-433.73
2019-03-13T08:55:28.030Z,-431.99
2019-03-13T08:56:28.357Z,-433.21
2019-03-13T08:57:28.700Z,-436.72
2019-03-13T08:58:28.900Z,-438.83
2019-03-13T08:59:29.196Z,-434.82
2019-03-13T09:00:29.522Z,-431.10
2019-03-13T09:01:29.805Z,-438.14
2019-03-13T09:02:30.161Z,-433.98
2019-03-13T09:03:30.410Z,-433.95
2019-03-13T09:04:30.706Z,-435.36
2019-03-13T09:05:31.141Z,-435.05
2019-03-13T09:06:31.314Z,-436.83
2019-03-13T09:07:31.660Z,-436.58
2019-03-13T09:08:31.905Z,-440.89
2019-03-13T09:09:32.227Z,-441.88
2019-03-13T09:10:32.508Z,-434.73
2019-03-13T09:11:32.815Z,-435.47
2019-03-13T09:12:33.124Z,-437.25
2019-03-13T09:13:33.494Z,-433.74
2019-03-13T09:14:33.703Z,-435.83
2019-03-13T09:15:33.999Z,-411.05
2019-03-13T09:16:34.288Z,-437.55
2019-03-13T09:17:34.634Z,-436.27
2019-03-13T09:18:34.907Z,-437.60
2019-03-13T09:19:35.206Z,-436.92
2019-03-13T09:20:35.524Z,-435.56
2019-03-13T09:21:35.824Z,-433.75
2019-03-13T09:22:36.112Z,-437.16
2019-03-13T09:23:36.390Z,-432.76
2019-03-13T09:24:36.688Z,-438.34
2019-03-13T09:25:37.006Z,-437.11
2019-03-13T09:26:37.279Z,-436.54
2019-03-13T09:27:37.590Z,-434.08
2019-03-13T09:28:37.861Z,-441.21
2019-03-13T09:29:38.284Z,-437.39
2019-03-13T09:30:38.510Z,-439.57
2019-03-13T09:31:39.017Z,-438.69
2019-03-13T09:32:39.081Z,-438.78
2019-03-13T09:33:39.353Z,-435.66
2019-03-13T09:34:39.675Z,-423.76
2019-03-13T09:35:39.990Z,-429.13
2019-03-13T09:36:40.271Z,-436.05
2019-03-13T09:37:40.597Z,-439.60
2019-03-13T09:38:41.019Z,-433.51
2019-03-13T09:39:41.191Z,-434.48
2019-03-13T09:40:41.508Z,-440.70
2019-03-13T09:41:41.785Z,-442.52
2019-03-13T09:42:42.109Z,-444.54
2019-03-13T09:43:42.401Z,-439.91
2019-03-13T09:44:42.678Z,-435.84
2019-03-13T09:45:43.012Z,-436.44
2019-03-13T09:46:43.422Z,-438.45
2019-03-13T09:47:43.614Z,-438.95
2019-03-13T09:48:43.915Z,-439.36
2019-03-13T09:49:44.173Z,-436.32
2019-03-13T09:50:44.513Z,-439.99
2019-03-13T09:51:44.805Z,-437.58
2019-03-13T09:52:45.092Z,-441.01
2019-03-13T09:53:45.427Z,-438.73
2019-03-13T09:54:45.716Z,-420.53
2019-03-13T09:55:45.993Z,-437.54
2019-03-13T09:56:46.292Z,-436.24
2019-03-13T09:57:46.594Z,-439.02
2019-03-13T09:58:46.917Z,-435.49
2019-03-13T09:59:47.188Z,-434.11
2019-03-13T10:00:47.507Z,-435.20
2019-03-13T10:01:47.770Z,-434.27
2019-03-13T10:02:48.129Z,-434.06
2019-03-13T10:03:48.388Z,-434.62
2019-03-13T10:04:48.670Z,-434.03
2019-03-13T10:05:48.992Z,-437.75
2019-03-13T10:06:49.252Z,-435.85
2019-03-13T10:07:49.580Z,-435.77
2019-03-13T10:08:49.911Z,-436.73
2019-03-13T10:09:50.188Z,-436.16
2019-03-13T10:10:50.513Z,-438.25
2019-03-13T10:11:50.880Z,-438.33
2019-03-13T10:12:51.082Z,-441.30
2019-03-13T10:13:51.405Z,-438.59
2019-03-13T10:14:51.678Z,-437.84
2019-03-13T10:15:51.994Z,-441.41
2019-03-13T10:16:52.276Z,-433.38
2019-03-13T10:17:52.559Z,-438.58
2019-03-13T10:18:52.908Z,-440.92
2019-03-13T10:19:53.290Z,-443.27
2019-03-13T10:20:53.511Z,-431.22
2019-03-13T10:21:53.787Z,-434.20
2019-03-13T10:22:54.062Z,-442.14
2019-03-13T10:23:54.416Z,-444.68
2019-03-13T10:24:54.686Z,-445.77
2019-03-13T10:25:55.002Z,-445.45
2019-03-13T10:26:55.290Z,-442.56
2019-03-13T10:27:55.669Z,-439.42
2019-03-13T10:28:55.893Z,-439.23
2019-03-13T10:29:56.172Z,-444.44
2019-03-13T10:30:56.488Z,-443.06
2019-03-13T10:31:56.765Z,-442.23
2019-03-13T10:32:57.064Z,-438.11
2019-03-13T10:33:57.376Z,-440.56
2019-03-13T10:34:57.647Z,-433.26
2019-03-13T10:35:58.002Z,-437.81
2019-03-13T10:36:58.250Z,-439.42
2019-03-13T10:37:58.559Z,-434.53
2019-03-13T10:38:58.880Z,-435.02
2019-03-13T10:39:59.125Z,-438.35
2019-03-13T10:40:59.439Z,-436.69
2019-03-13T10:41:59.772Z,-439.29
2019-03-13T10:43:00.068Z,-435.66
2019-03-13T10:44:00.699Z,-440.23
2019-03-13T10:45:00.763Z,-441.52
2019-03-13T10:46:01.005Z,-435.97
2019-03-13T10:47:01.336Z,-427.78
2019-03-13T10:48:01.617Z,-431.31
2019-03-13T10:49:01.984Z,-440.68
2019-03-13T10:50:02.233Z,-438.66
2019-03-13T10:51:02.517Z,-440.61
2019-03-13T10:52:02.842Z,-440.25
2019-03-13T10:53:03.247Z,-429.13
2019-03-13T10:54:03.478Z,-436.95
2019-03-13T10:55:03.734Z,-399.90
2019-03-13T10:56:04.009Z,-435.17
2019-03-13T10:57:04.339Z,-438.63
2019-03-13T10:58:04.624Z,-436.99
2019-03-13T10:59:04.954Z,-438.23
2019-03-13T11:00:05.217Z,-431.05
2019-03-13T11:01:05.593Z,-436.67
2019-03-13T11:02:05.836Z,-438.67
2019-03-13T11:03:06.110Z,-437.14
2019-03-13T11:04:06.444Z,-437.60
2019-03-13T11:05:06.723Z,-435.05
2019-03-13T11:06:07.014Z,-440.36
2019-03-13T11:07:07.314Z,-435.28
2019-03-13T11:08:07.602Z,-440.18
2019-03-13T11:09:07.997Z,-431.87
2019-03-13T11:10:08.438Z,-442.63
2019-03-13T11:11:08.494Z,-436.05
2019-03-13T11:12:08.813Z,-431.75
2019-03-13T11:13:09.097Z,-433.16
2019-03-13T11:14:15.397Z,-436.92
2019-03-13T11:15:10.701Z,-430.11
2019-03-13T11:16:09.992Z,-441.60
2019-03-13T11:17:10.369Z,-439.26
2019-03-13T11:18:10.566Z,-438.26
2019-03-13T11:19:10.875Z,-441.65
2019-03-13T11:20:11.197Z,-442.11
2019-03-13T11:21:11.480Z,-446.29
2019-03-13T11:22:11.797Z,-465.36
2019-03-13T11:23:12.077Z,-464.08
2019-03-13T11:24:12.395Z,-463.83
2019-03-13T11:25:12.710Z,-462.35
2019-03-13T11:26:13.058Z,-466.00
2019-03-13T11:27:13.298Z,-457.89
2019-03-13T11:28:13.572Z,-462.70
2019-03-13T11:29:13.885Z,-460.85
2019-03-13T11:30:14.192Z,-459.58
2019-03-13T11:31:14.468Z,-460.65
2019-03-13T11:32:14.786Z,-461.68
2019-03-13T11:33:15.074Z,-431.93
2019-03-13T11:34:15.450Z,-459.07
2019-03-13T11:35:15.670Z,-458.19
2019-03-13T11:36:15.964Z,-457.39
2019-03-13T11:37:16.274Z,-442.79
2019-03-13T11:38:16.555Z,-456.19
2019-03-13T11:39:16.873Z,-462.86
2019-03-13T11:40:17.173Z,-457.23
2019-03-13T11:41:17.456Z,-434.60
2019-03-13T11:42:17.881Z,-459.71
2019-03-13T11:43:18.047Z,-432.82
2019-03-13T11:44:18.349Z,-466.93
2019-03-13T11:45:18.648Z,-457.53
2019-03-13T11:46:18.941Z,-458.32
2019-03-13T11:47:19.257Z,-460.92
2019-03-13T11:48:19.547Z,-458.63
2019-03-13T11:49:19.839Z,-462.89
2019-03-13T11:50:20.216Z,-463.52
2019-03-13T11:51:20.464Z,-458.11
2019-03-13T11:52:20.751Z,-461.15
2019-03-13T11:53:21.051Z,-460.44
2019-03-13T11:54:21.348Z,-464.41
2019-03-13T11:55:21.678Z,-457.76
2019-03-13T11:56:21.954Z,-459.74
2019-03-13T11:57:22.354Z,-456.80
2019-03-13T11:58:22.589Z,-458.96
2019-03-13T11:59:22.879Z,-460.79
2019-03-13T12:00:23.200Z,-467.32
2019-03-13T12:01:23.483Z,-460.79
2019-03-13T12:02:23.800Z,-455.40
2019-03-13T12:03:24.072Z,-450.89
2019-03-13T12:04:24.363Z,-457.67
2019-03-13T12:05:24.694Z,-456.05
2019-03-13T12:06:25.011Z,-463.92
2019-03-13T12:07:25.381Z,-436.48
2019-03-13T12:08:25.557Z,-461.23
2019-03-13T12:09:25.872Z,-455.18